sensor_id;sensor_type;location;lat;lon;timestamp;P1;durP1;ratioP1;P2;durP2;ratioP2
36351;SDS011;22382;44.768;17.206;2024-02-16T00:00:10;45.75;;;22.42;;
36351;SDS011;22382;44.768;17.206;2024-02-16T00:02:38;27.85;;;15.52;;
36351;SDS011;22382;44.768;17.206;2024-02-16T00:05:07;33.30;;;17.52;;
36351;SDS011;22382;44.768;17.206;2024-02-16T00:07:34;33.70;;;17.40;;
36351;SDS011;22382;44.768;17.206;2024-02-16T00:10:02;21.13;;;11.00;;
36351;SDS011;22382;44.768;17.206;2024-02-16T00:12:31;16.77;;;9.98;;
36351;SDS011;22382;44.768;17.206;2024-02-16T00:14:59;16.60;;;8.75;;
36351;SDS011;22382;44.768;17.206;2024-02-16T00:17:27;24.02;;;11.82;;
36351;SDS011;22382;44.768;17.206;2024-02-16T00:19:55;17.80;;;9.35;;
36351;SDS011;22382;44.768;17.206;2024-02-16T00:22:23;33.03;;;17.45;;
36351;SDS011;22382;44.768;17.206;2024-02-16T00:24:51;62.67;;;30.73;;
36351;SDS011;22382;44.768;17.206;2024-02-16T00:27:18;109.07;;;53.63;;
36351;SDS011;22382;44.768;17.206;2024-02-16T00:29:45;100.50;;;50.63;;
36351;SDS011;22382;44.768;17.206;2024-02-16T00:32:13;101.03;;;51.85;;
36351;SDS011;22382;44.768;17.206;2024-02-16T00:34:43;94.00;;;49.63;;
36351;SDS011;22382;44.768;17.206;2024-02-16T00:37:10;101.32;;;48.08;;
36351;SDS011;22382;44.768;17.206;2024-02-16T00:39:40;102.85;;;51.33;;
36351;SDS011;22382;44.768;17.206;2024-02-16T00:42:08;107.90;;;53.97;;
36351;SDS011;22382;44.768;17.206;2024-02-16T00:44:35;103.57;;;52.90;;
36351;SDS011;22382;44.768;17.206;2024-02-16T00:47:03;94.65;;;51.17;;
36351;SDS011;22382;44.768;17.206;2024-02-16T00:49:36;72.78;;;37.38;;
36351;SDS011;22382;44.768;17.206;2024-02-16T00:52:03;77.68;;;38.38;;
36351;SDS011;22382;44.768;17.206;2024-02-16T00:54:31;71.93;;;37.40;;
36351;SDS011;22382;44.768;17.206;2024-02-16T00:56:58;61.42;;;31.77;;
36351;SDS011;22382;44.768;17.206;2024-02-16T00:59:29;40.60;;;21.75;;
36351;SDS011;22382;44.768;17.206;2024-02-16T01:01:57;53.70;;;27.15;;
36351;SDS011;22382;44.768;17.206;2024-02-16T01:04:24;81.72;;;42.55;;
36351;SDS011;22382;44.768;17.206;2024-02-16T01:06:51;54.92;;;28.10;;
36351;SDS011;22382;44.768;17.206;2024-02-16T01:09:18;39.53;;;20.63;;
36351;SDS011;22382;44.768;17.206;2024-02-16T01:11:46;40.33;;;20.83;;
36351;SDS011;22382;44.768;17.206;2024-02-16T01:14:14;43.75;;;23.38;;
36351;SDS011;22382;44.768;17.206;2024-02-16T01:16:42;58.55;;;30.42;;
36351;SDS011;22382;44.768;17.206;2024-02-16T01:19:09;62.22;;;32.35;;
36351;SDS011;22382;44.768;17.206;2024-02-16T01:21:37;57.88;;;29.48;;
36351;SDS011;22382;44.768;17.206;2024-02-16T01:24:04;61.10;;;30.42;;
36351;SDS011;22382;44.768;17.206;2024-02-16T01:26:32;78.05;;;40.28;;
36351;SDS011;22382;44.768;17.206;2024-02-16T01:29:00;76.80;;;41.70;;
36351;SDS011;22382;44.768;17.206;2024-02-16T01:31:29;71.35;;;35.47;;
36351;SDS011;22382;44.768;17.206;2024-02-16T01:33:56;79.28;;;40.30;;
36351;SDS011;22382;44.768;17.206;2024-02-16T01:36:23;68.40;;;36.20;;
36351;SDS011;22382;44.768;17.206;2024-02-16T01:38:52;76.60;;;38.63;;
36351;SDS011;22382;44.768;17.206;2024-02-16T01:41:20;75.35;;;38.95;;
36351;SDS011;22382;44.768;17.206;2024-02-16T01:43:47;63.67;;;34.60;;
36351;SDS011;22382;44.768;17.206;2024-02-16T01:46:14;59.97;;;33.20;;
36351;SDS011;22382;44.768;17.206;2024-02-16T01:48:41;53.25;;;28.95;;
36351;SDS011;22382;44.768;17.206;2024-02-16T01:51:10;54.33;;;28.02;;
36351;SDS011;22382;44.768;17.206;2024-02-16T01:53:38;66.00;;;35.42;;
36351;SDS011;22382;44.768;17.206;2024-02-16T01:56:06;65.97;;;33.70;;
36351;SDS011;22382;44.768;17.206;2024-02-16T01:58:34;61.97;;;32.65;;
36351;SDS011;22382;44.768;17.206;2024-02-16T02:01:01;70.95;;;35.90;;
36351;SDS011;22382;44.768;17.206;2024-02-16T02:03:29;62.28;;;31.40;;
36351;SDS011;22382;44.768;17.206;2024-02-16T02:05:57;59.38;;;31.52;;
36351;SDS011;22382;44.768;17.206;2024-02-16T02:08:24;66.68;;;31.67;;
36351;SDS011;22382;44.768;17.206;2024-02-16T02:10:53;62.63;;;31.00;;
36351;SDS011;22382;44.768;17.206;2024-02-16T02:13:20;55.55;;;28.08;;
36351;SDS011;22382;44.768;17.206;2024-02-16T02:15:48;57.28;;;29.33;;
36351;SDS011;22382;44.768;17.206;2024-02-16T02:18:16;54.10;;;28.13;;
36351;SDS011;22382;44.768;17.206;2024-02-16T02:20:44;30.00;;;16.63;;
36351;SDS011;22382;44.768;17.206;2024-02-16T02:23:12;35.50;;;18.38;;
36351;SDS011;22382;44.768;17.206;2024-02-16T02:25:39;21.92;;;10.70;;
36351;SDS011;22382;44.768;17.206;2024-02-16T02:28:07;28.00;;;14.75;;
36351;SDS011;22382;44.768;17.206;2024-02-16T02:30:35;33.50;;;16.70;;
36351;SDS011;22382;44.768;17.206;2024-02-16T02:33:04;27.73;;;16.33;;
36351;SDS011;22382;44.768;17.206;2024-02-16T02:35:32;26.50;;;13.68;;
36351;SDS011;22382;44.768;17.206;2024-02-16T02:37:59;29.65;;;14.25;;
36351;SDS011;22382;44.768;17.206;2024-02-16T02:40:26;30.63;;;15.15;;
36351;SDS011;22382;44.768;17.206;2024-02-16T02:42:54;29.33;;;16.40;;
36351;SDS011;22382;44.768;17.206;2024-02-16T02:45:21;28.55;;;14.52;;
36351;SDS011;22382;44.768;17.206;2024-02-16T02:47:50;20.48;;;11.35;;
36351;SDS011;22382;44.768;17.206;2024-02-16T02:50:18;22.80;;;10.98;;
36351;SDS011;22382;44.768;17.206;2024-02-16T02:52:46;28.75;;;13.85;;
36351;SDS011;22382;44.768;17.206;2024-02-16T02:55:13;25.13;;;13.32;;
36351;SDS011;22382;44.768;17.206;2024-02-16T02:57:40;20.85;;;11.82;;
36351;SDS011;22382;44.768;17.206;2024-02-16T03:00:08;19.17;;;10.27;;
36351;SDS011;22382;44.768;17.206;2024-02-16T03:02:38;13.38;;;6.65;;
36351;SDS011;22382;44.768;17.206;2024-02-16T03:05:06;13.95;;;6.45;;
36351;SDS011;22382;44.768;17.206;2024-02-16T03:07:34;15.65;;;7.93;;
36351;SDS011;22382;44.768;17.206;2024-02-16T03:10:01;14.57;;;7.63;;
36351;SDS011;22382;44.768;17.206;2024-02-16T03:12:31;13.88;;;6.50;;
36351;SDS011;22382;44.768;17.206;2024-02-16T03:14:59;11.63;;;5.70;;
36351;SDS011;22382;44.768;17.206;2024-02-16T03:17:26;10.82;;;5.63;;
36351;SDS011;22382;44.768;17.206;2024-02-16T03:19:54;8.30;;;4.93;;
36351;SDS011;22382;44.768;17.206;2024-02-16T03:22:22;12.15;;;5.78;;
36351;SDS011;22382;44.768;17.206;2024-02-16T03:24:49;15.23;;;8.05;;
36351;SDS011;22382;44.768;17.206;2024-02-16T03:27:16;13.23;;;7.72;;
36351;SDS011;22382;44.768;17.206;2024-02-16T03:29:44;15.30;;;8.45;;
36351;SDS011;22382;44.768;17.206;2024-02-16T03:32:11;17.02;;;8.88;;
36351;SDS011;22382;44.768;17.206;2024-02-16T03:34:38;15.23;;;9.27;;
36351;SDS011;22382;44.768;17.206;2024-02-16T03:37:06;15.57;;;8.90;;
36351;SDS011;22382;44.768;17.206;2024-02-16T03:39:33;20.52;;;10.38;;
36351;SDS011;22382;44.768;17.206;2024-02-16T03:42:00;17.10;;;9.05;;
36351;SDS011;22382;44.768;17.206;2024-02-16T03:44:27;15.25;;;8.15;;
36351;SDS011;22382;44.768;17.206;2024-02-16T03:46:55;13.52;;;8.30;;
36351;SDS011;22382;44.768;17.206;2024-02-16T03:49:22;14.00;;;7.20;;
36351;SDS011;22382;44.768;17.206;2024-02-16T03:51:51;12.68;;;7.30;;
36351;SDS011;22382;44.768;17.206;2024-02-16T03:54:19;12.93;;;5.65;;
36351;SDS011;22382;44.768;17.206;2024-02-16T03:56:47;9.00;;;4.90;;
36351;SDS011;22382;44.768;17.206;2024-02-16T03:59:15;10.60;;;5.28;;
36351;SDS011;22382;44.768;17.206;2024-02-16T04:01:42;10.63;;;5.35;;
36351;SDS011;22382;44.768;17.206;2024-02-16T04:04:09;10.40;;;5.00;;
36351;SDS011;22382;44.768;17.206;2024-02-16T04:06:37;7.88;;;4.35;;
36351;SDS011;22382;44.768;17.206;2024-02-16T04:09:05;8.00;;;4.30;;
36351;SDS011;22382;44.768;17.206;2024-02-16T04:11:32;7.35;;;4.63;;
36351;SDS011;22382;44.768;17.206;2024-02-16T04:14:00;8.35;;;4.55;;
36351;SDS011;22382;44.768;17.206;2024-02-16T04:16:28;8.13;;;4.22;;
36351;SDS011;22382;44.768;17.206;2024-02-16T04:18:55;7.28;;;4.10;;
36351;SDS011;22382;44.768;17.206;2024-02-16T04:21:23;6.60;;;3.80;;
36351;SDS011;22382;44.768;17.206;2024-02-16T04:23:50;6.75;;;4.07;;
36351;SDS011;22382;44.768;17.206;2024-02-16T04:26:17;7.25;;;4.43;;
36351;SDS011;22382;44.768;17.206;2024-02-16T04:28:44;8.52;;;4.88;;
36351;SDS011;22382;44.768;17.206;2024-02-16T04:31:12;8.02;;;5.13;;
36351;SDS011;22382;44.768;17.206;2024-02-16T04:33:39;9.35;;;5.25;;
36351;SDS011;22382;44.768;17.206;2024-02-16T04:36:07;8.45;;;4.90;;
36351;SDS011;22382;44.768;17.206;2024-02-16T04:38:34;10.48;;;5.68;;
36351;SDS011;22382;44.768;17.206;2024-02-16T04:41:04;12.00;;;6.18;;
36351;SDS011;22382;44.768;17.206;2024-02-16T04:43:31;15.15;;;7.97;;
36351;SDS011;22382;44.768;17.206;2024-02-16T04:45:59;9.65;;;5.60;;
36351;SDS011;22382;44.768;17.206;2024-02-16T04:48:26;12.30;;;6.03;;
36351;SDS011;22382;44.768;17.206;2024-02-16T04:50:54;10.35;;;5.45;;
36351;SDS011;22382;44.768;17.206;2024-02-16T04:53:21;14.68;;;6.65;;
36351;SDS011;22382;44.768;17.206;2024-02-16T04:55:48;15.27;;;7.65;;
36351;SDS011;22382;44.768;17.206;2024-02-16T04:58:16;14.23;;;7.03;;
36351;SDS011;22382;44.768;17.206;2024-02-16T05:00:43;18.60;;;7.63;;
36351;SDS011;22382;44.768;17.206;2024-02-16T05:03:13;12.43;;;6.47;;
36351;SDS011;22382;44.768;17.206;2024-02-16T05:05:41;40.65;;;24.15;;
36351;SDS011;22382;44.768;17.206;2024-02-16T05:08:09;23.95;;;14.85;;
36351;SDS011;22382;44.768;17.206;2024-02-16T05:10:36;21.15;;;12.48;;
36351;SDS011;22382;44.768;17.206;2024-02-16T05:13:03;19.67;;;11.75;;
36351;SDS011;22382;44.768;17.206;2024-02-16T05:15:31;20.05;;;11.00;;
36351;SDS011;22382;44.768;17.206;2024-02-16T05:17:59;17.27;;;10.38;;
36351;SDS011;22382;44.768;17.206;2024-02-16T05:20:28;22.13;;;12.52;;
36351;SDS011;22382;44.768;17.206;2024-02-16T05:22:55;21.23;;;11.85;;
36351;SDS011;22382;44.768;17.206;2024-02-16T05:25:23;20.02;;;11.00;;
36351;SDS011;22382;44.768;17.206;2024-02-16T05:27:50;22.45;;;12.63;;
36351;SDS011;22382;44.768;17.206;2024-02-16T05:30:17;21.02;;;11.25;;
36351;SDS011;22382;44.768;17.206;2024-02-16T05:32:45;17.23;;;10.23;;
36351;SDS011;22382;44.768;17.206;2024-02-16T05:35:13;17.70;;;10.63;;
36351;SDS011;22382;44.768;17.206;2024-02-16T05:37:43;20.65;;;10.48;;
36351;SDS011;22382;44.768;17.206;2024-02-16T05:40:14;19.27;;;10.32;;
36351;SDS011;22382;44.768;17.206;2024-02-16T05:42:53;20.35;;;11.10;;
36351;SDS011;22382;44.768;17.206;2024-02-16T05:45:24;25.38;;;11.40;;
36351;SDS011;22382;44.768;17.206;2024-02-16T05:47:53;18.40;;;9.95;;
36351;SDS011;22382;44.768;17.206;2024-02-16T05:50:21;16.20;;;10.35;;
36351;SDS011;22382;44.768;17.206;2024-02-16T05:52:49;18.92;;;10.38;;
36351;SDS011;22382;44.768;17.206;2024-02-16T05:55:18;23.70;;;12.00;;
36351;SDS011;22382;44.768;17.206;2024-02-16T05:57:45;19.98;;;11.18;;
36351;SDS011;22382;44.768;17.206;2024-02-16T06:00:13;21.50;;;11.60;;
36351;SDS011;22382;44.768;17.206;2024-02-16T06:02:42;23.45;;;11.60;;
36351;SDS011;22382;44.768;17.206;2024-02-16T06:05:10;20.23;;;11.30;;
36351;SDS011;22382;44.768;17.206;2024-02-16T06:07:38;22.65;;;12.05;;
36351;SDS011;22382;44.768;17.206;2024-02-16T06:10:06;30.02;;;14.48;;
36351;SDS011;22382;44.768;17.206;2024-02-16T06:12:38;25.73;;;14.65;;
36351;SDS011;22382;44.768;17.206;2024-02-16T06:15:06;24.30;;;14.27;;
36351;SDS011;22382;44.768;17.206;2024-02-16T06:17:34;26.88;;;15.05;;
36351;SDS011;22382;44.768;17.206;2024-02-16T06:20:03;25.38;;;14.50;;
36351;SDS011;22382;44.768;17.206;2024-02-16T06:22:32;27.55;;;14.18;;
36351;SDS011;22382;44.768;17.206;2024-02-16T06:24:59;29.10;;;15.73;;
36351;SDS011;22382;44.768;17.206;2024-02-16T06:27:27;27.30;;;13.82;;
36351;SDS011;22382;44.768;17.206;2024-02-16T06:29:54;32.03;;;16.17;;
36351;SDS011;22382;44.768;17.206;2024-02-16T06:32:22;32.97;;;16.58;;
36351;SDS011;22382;44.768;17.206;2024-02-16T06:34:50;31.27;;;18.10;;
36351;SDS011;22382;44.768;17.206;2024-02-16T06:37:17;36.13;;;20.17;;
36351;SDS011;22382;44.768;17.206;2024-02-16T06:39:44;35.80;;;20.73;;
36351;SDS011;22382;44.768;17.206;2024-02-16T06:42:11;91.85;;;46.63;;
36351;SDS011;22382;44.768;17.206;2024-02-16T06:44:39;57.88;;;30.95;;
36351;SDS011;22382;44.768;17.206;2024-02-16T06:47:06;56.70;;;30.05;;
36351;SDS011;22382;44.768;17.206;2024-02-16T06:49:34;48.28;;;27.50;;
36351;SDS011;22382;44.768;17.206;2024-02-16T06:52:01;46.17;;;27.17;;
36351;SDS011;22382;44.768;17.206;2024-02-16T06:54:29;42.97;;;24.65;;
36351;SDS011;22382;44.768;17.206;2024-02-16T06:56:57;51.22;;;28.17;;
36351;SDS011;22382;44.768;17.206;2024-02-16T06:59:24;49.95;;;26.15;;
36351;SDS011;22382;44.768;17.206;2024-02-16T07:01:51;49.65;;;27.05;;
36351;SDS011;22382;44.768;17.206;2024-02-16T07:04:19;51.67;;;29.67;;
36351;SDS011;22382;44.768;17.206;2024-02-16T07:06:46;48.38;;;27.80;;
36351;SDS011;22382;44.768;17.206;2024-02-16T07:09:14;43.17;;;26.10;;
36351;SDS011;22382;44.768;17.206;2024-02-16T07:11:42;48.25;;;27.63;;
36351;SDS011;22382;44.768;17.206;2024-02-16T07:14:17;38.33;;;22.50;;
36351;SDS011;22382;44.768;17.206;2024-02-16T07:16:45;34.30;;;20.23;;
36351;SDS011;22382;44.768;17.206;2024-02-16T07:19:12;41.00;;;22.92;;
36351;SDS011;22382;44.768;17.206;2024-02-16T07:21:39;34.30;;;21.77;;
36351;SDS011;22382;44.768;17.206;2024-02-16T07:24:07;43.40;;;24.38;;
36351;SDS011;22382;44.768;17.206;2024-02-16T07:26:35;48.30;;;28.33;;
36351;SDS011;22382;44.768;17.206;2024-02-16T07:29:03;84.63;;;42.80;;
36351;SDS011;22382;44.768;17.206;2024-02-16T07:31:31;48.97;;;28.70;;
36351;SDS011;22382;44.768;17.206;2024-02-16T07:34:01;38.95;;;24.30;;
36351;SDS011;22382;44.768;17.206;2024-02-16T07:36:29;46.47;;;24.85;;
36351;SDS011;22382;44.768;17.206;2024-02-16T07:38:57;42.80;;;22.70;;
36351;SDS011;22382;44.768;17.206;2024-02-16T07:41:24;37.75;;;20.27;;
36351;SDS011;22382;44.768;17.206;2024-02-16T07:43:54;43.10;;;21.20;;
36351;SDS011;22382;44.768;17.206;2024-02-16T07:46:21;42.72;;;23.38;;
36351;SDS011;22382;44.768;17.206;2024-02-16T07:48:50;43.90;;;23.15;;
36351;SDS011;22382;44.768;17.206;2024-02-16T07:51:18;43.08;;;23.48;;
36351;SDS011;22382;44.768;17.206;2024-02-16T07:53:45;36.80;;;21.60;;
36351;SDS011;22382;44.768;17.206;2024-02-16T07:56:13;42.50;;;22.23;;
36351;SDS011;22382;44.768;17.206;2024-02-16T07:58:41;37.47;;;21.77;;
36351;SDS011;22382;44.768;17.206;2024-02-16T08:01:11;36.60;;;20.45;;
36351;SDS011;22382;44.768;17.206;2024-02-16T08:03:42;37.22;;;19.35;;
36351;SDS011;22382;44.768;17.206;2024-02-16T08:06:09;37.83;;;19.30;;
36351;SDS011;22382;44.768;17.206;2024-02-16T08:08:37;34.05;;;19.45;;
36351;SDS011;22382;44.768;17.206;2024-02-16T08:11:04;32.25;;;18.90;;
36351;SDS011;22382;44.768;17.206;2024-02-16T08:13:32;30.40;;;17.02;;
36351;SDS011;22382;44.768;17.206;2024-02-16T08:15:59;27.98;;;16.70;;
36351;SDS011;22382;44.768;17.206;2024-02-16T08:18:30;28.92;;;15.77;;
36351;SDS011;22382;44.768;17.206;2024-02-16T08:20:57;22.40;;;13.80;;
36351;SDS011;22382;44.768;17.206;2024-02-16T08:23:25;19.70;;;12.38;;
36351;SDS011;22382;44.768;17.206;2024-02-16T08:25:52;20.15;;;11.27;;
36351;SDS011;22382;44.768;17.206;2024-02-16T08:28:19;19.25;;;12.00;;
36351;SDS011;22382;44.768;17.206;2024-02-16T08:30:47;22.05;;;11.48;;
36351;SDS011;22382;44.768;17.206;2024-02-16T08:33:14;20.67;;;12.77;;
36351;SDS011;22382;44.768;17.206;2024-02-16T08:35:42;22.83;;;13.57;;
36351;SDS011;22382;44.768;17.206;2024-02-16T08:38:09;25.38;;;14.82;;
36351;SDS011;22382;44.768;17.206;2024-02-16T08:40:37;27.50;;;16.42;;
36351;SDS011;22382;44.768;17.206;2024-02-16T08:43:06;29.25;;;17.92;;
36351;SDS011;22382;44.768;17.206;2024-02-16T08:45:34;25.70;;;14.70;;
36351;SDS011;22382;44.768;17.206;2024-02-16T08:48:01;28.95;;;16.60;;
36351;SDS011;22382;44.768;17.206;2024-02-16T08:50:31;34.47;;;17.15;;
36351;SDS011;22382;44.768;17.206;2024-02-16T08:52:58;25.75;;;15.73;;
36351;SDS011;22382;44.768;17.206;2024-02-16T08:55:25;26.23;;;15.40;;
36351;SDS011;22382;44.768;17.206;2024-02-16T08:57:52;35.50;;;14.68;;
36351;SDS011;22382;44.768;17.206;2024-02-16T09:00:20;34.47;;;16.85;;
36351;SDS011;22382;44.768;17.206;2024-02-16T09:02:47;34.60;;;16.98;;
36351;SDS011;22382;44.768;17.206;2024-02-16T09:05:14;32.63;;;14.85;;
36351;SDS011;22382;44.768;17.206;2024-02-16T09:07:42;26.77;;;14.45;;
36351;SDS011;22382;44.768;17.206;2024-02-16T09:10:09;27.42;;;12.93;;
36351;SDS011;22382;44.768;17.206;2024-02-16T09:12:36;26.52;;;13.02;;
36351;SDS011;22382;44.768;17.206;2024-02-16T09:15:04;25.52;;;11.35;;
36351;SDS011;22382;44.768;17.206;2024-02-16T09:17:32;16.23;;;8.10;;
36351;SDS011;22382;44.768;17.206;2024-02-16T09:19:59;18.65;;;8.50;;
36351;SDS011;22382;44.768;17.206;2024-02-16T09:22:27;18.80;;;7.97;;
36351;SDS011;22382;44.768;17.206;2024-02-16T09:24:57;19.25;;;10.57;;
36351;SDS011;22382;44.768;17.206;2024-02-16T09:27:26;16.33;;;10.07;;
36351;SDS011;22382;44.768;17.206;2024-02-16T09:29:54;15.45;;;9.88;;
36351;SDS011;22382;44.768;17.206;2024-02-16T09:32:22;18.75;;;10.25;;
36351;SDS011;22382;44.768;17.206;2024-02-16T09:34:49;22.75;;;11.35;;
36351;SDS011;22382;44.768;17.206;2024-02-16T09:37:18;17.65;;;9.10;;
36351;SDS011;22382;44.768;17.206;2024-02-16T09:39:45;17.50;;;7.72;;
36351;SDS011;22382;44.768;17.206;2024-02-16T09:42:12;17.63;;;8.90;;
36351;SDS011;22382;44.768;17.206;2024-02-16T09:44:41;15.10;;;9.52;;
36351;SDS011;22382;44.768;17.206;2024-02-16T09:47:11;19.30;;;8.85;;
36351;SDS011;22382;44.768;17.206;2024-02-16T09:49:40;13.10;;;6.40;;
36351;SDS011;22382;44.768;17.206;2024-02-16T09:52:09;18.55;;;11.15;;
36351;SDS011;22382;44.768;17.206;2024-02-16T09:54:40;22.05;;;11.73;;
36351;SDS011;22382;44.768;17.206;2024-02-16T09:57:07;19.27;;;11.27;;
36351;SDS011;22382;44.768;17.206;2024-02-16T09:59:36;20.23;;;11.75;;
36351;SDS011;22382;44.768;17.206;2024-02-16T10:02:04;16.67;;;9.88;;
36351;SDS011;22382;44.768;17.206;2024-02-16T10:04:34;16.33;;;9.23;;
36351;SDS011;22382;44.768;17.206;2024-02-16T10:07:03;15.65;;;8.70;;
36351;SDS011;22382;44.768;17.206;2024-02-16T10:09:38;14.90;;;8.45;;
36351;SDS011;22382;44.768;17.206;2024-02-16T10:12:08;15.05;;;8.07;;
36351;SDS011;22382;44.768;17.206;2024-02-16T10:14:36;9.60;;;6.40;;
36351;SDS011;22382;44.768;17.206;2024-02-16T10:17:07;18.80;;;8.60;;
36351;SDS011;22382;44.768;17.206;2024-02-16T10:19:36;10.90;;;7.43;;
36351;SDS011;22382;44.768;17.206;2024-02-16T10:22:12;14.13;;;7.53;;
36351;SDS011;22382;44.768;17.206;2024-02-16T10:24:40;17.67;;;6.68;;
36351;SDS011;22382;44.768;17.206;2024-02-16T10:27:15;11.52;;;6.57;;
36351;SDS011;22382;44.768;17.206;2024-02-16T10:29:46;12.60;;;7.18;;
36351;SDS011;22382;44.768;17.206;2024-02-16T10:32:16;12.40;;;6.60;;
36351;SDS011;22382;44.768;17.206;2024-02-16T10:34:45;16.85;;;8.43;;
36351;SDS011;22382;44.768;17.206;2024-02-16T10:37:14;11.75;;;7.40;;
36351;SDS011;22382;44.768;17.206;2024-02-16T10:39:42;14.63;;;8.18;;
36351;SDS011;22382;44.768;17.206;2024-02-16T10:42:11;15.90;;;7.55;;
36351;SDS011;22382;44.768;17.206;2024-02-16T10:44:42;15.88;;;8.52;;
36351;SDS011;22382;44.768;17.206;2024-02-16T10:47:11;13.23;;;7.38;;
36351;SDS011;22382;44.768;17.206;2024-02-16T10:49:38;14.68;;;7.28;;
36351;SDS011;22382;44.768;17.206;2024-02-16T10:52:06;12.05;;;6.03;;
36351;SDS011;22382;44.768;17.206;2024-02-16T10:57:17;12.63;;;5.78;;
36351;SDS011;22382;44.768;17.206;2024-02-16T10:59:44;11.20;;;5.43;;
36351;SDS011;22382;44.768;17.206;2024-02-16T11:02:16;9.75;;;4.93;;
36351;SDS011;22382;44.768;17.206;2024-02-16T11:04:45;9.48;;;5.20;;
36351;SDS011;22382;44.768;17.206;2024-02-16T11:07:16;10.70;;;5.78;;
36351;SDS011;22382;44.768;17.206;2024-02-16T11:09:45;23.85;;;13.35;;
36351;SDS011;22382;44.768;17.206;2024-02-16T11:12:13;18.02;;;9.77;;
36351;SDS011;22382;44.768;17.206;2024-02-16T11:14:47;14.85;;;8.27;;
36351;SDS011;22382;44.768;17.206;2024-02-16T11:17:20;12.20;;;6.43;;
36351;SDS011;22382;44.768;17.206;2024-02-16T11:19:54;9.48;;;5.20;;
36351;SDS011;22382;44.768;17.206;2024-02-16T11:22:26;11.50;;;5.57;;
36351;SDS011;22382;44.768;17.206;2024-02-16T11:24:58;11.93;;;6.18;;
36351;SDS011;22382;44.768;17.206;2024-02-16T11:27:28;11.98;;;5.70;;
36351;SDS011;22382;44.768;17.206;2024-02-16T11:29:58;11.32;;;5.78;;
36351;SDS011;22382;44.768;17.206;2024-02-16T11:32:27;12.68;;;6.05;;
36351;SDS011;22382;44.768;17.206;2024-02-16T11:35:04;10.20;;;6.07;;
36351;SDS011;22382;44.768;17.206;2024-02-16T11:37:35;12.13;;;5.80;;
36351;SDS011;22382;44.768;17.206;2024-02-16T11:40:03;9.85;;;6.75;;
36351;SDS011;22382;44.768;17.206;2024-02-16T11:42:35;15.00;;;6.45;;
36351;SDS011;22382;44.768;17.206;2024-02-16T11:45:03;10.70;;;6.50;;
36351;SDS011;22382;44.768;17.206;2024-02-16T11:47:33;10.95;;;7.15;;
36351;SDS011;22382;44.768;17.206;2024-02-16T11:50:04;12.55;;;7.75;;
36351;SDS011;22382;44.768;17.206;2024-02-16T11:52:45;17.00;;;8.98;;
36351;SDS011;22382;44.768;17.206;2024-02-16T11:55:13;18.02;;;8.73;;
36351;SDS011;22382;44.768;17.206;2024-02-16T11:57:42;15.75;;;9.07;;
36351;SDS011;22382;44.768;17.206;2024-02-16T12:00:11;15.02;;;9.48;;
36351;SDS011;22382;44.768;17.206;2024-02-16T12:02:42;17.35;;;9.13;;
36351;SDS011;22382;44.768;17.206;2024-02-16T12:05:13;14.18;;;8.93;;
36351;SDS011;22382;44.768;17.206;2024-02-16T12:07:42;17.05;;;8.85;;
36351;SDS011;22382;44.768;17.206;2024-02-16T12:10:10;16.02;;;9.80;;
36351;SDS011;22382;44.768;17.206;2024-02-16T12:12:37;11.95;;;7.20;;
36351;SDS011;22382;44.768;17.206;2024-02-16T12:15:05;10.55;;;6.28;;
36351;SDS011;22382;44.768;17.206;2024-02-16T12:17:34;8.95;;;5.90;;
36351;SDS011;22382;44.768;17.206;2024-02-16T12:20:02;9.55;;;5.78;;
36351;SDS011;22382;44.768;17.206;2024-02-16T12:22:30;13.10;;;6.80;;
36351;SDS011;22382;44.768;17.206;2024-02-16T12:24:57;15.93;;;8.38;;
36351;SDS011;22382;44.768;17.206;2024-02-16T12:27:28;11.63;;;7.22;;
36351;SDS011;22382;44.768;17.206;2024-02-16T12:29:56;14.88;;;7.00;;
36351;SDS011;22382;44.768;17.206;2024-02-16T12:32:23;12.77;;;8.30;;
36351;SDS011;22382;44.768;17.206;2024-02-16T12:34:50;15.32;;;9.27;;
36351;SDS011;22382;44.768;17.206;2024-02-16T12:37:18;15.07;;;9.45;;
36351;SDS011;22382;44.768;17.206;2024-02-16T12:39:45;15.05;;;8.80;;
36351;SDS011;22382;44.768;17.206;2024-02-16T12:42:14;13.07;;;8.50;;
36351;SDS011;22382;44.768;17.206;2024-02-16T12:44:41;16.30;;;8.60;;
36351;SDS011;22382;44.768;17.206;2024-02-16T12:47:09;17.35;;;9.10;;
36351;SDS011;22382;44.768;17.206;2024-02-16T12:49:36;11.70;;;8.70;;
36351;SDS011;22382;44.768;17.206;2024-02-16T12:52:03;13.73;;;8.60;;
36351;SDS011;22382;44.768;17.206;2024-02-16T12:54:31;12.68;;;8.43;;
36351;SDS011;22382;44.768;17.206;2024-02-16T12:56:59;14.52;;;8.63;;
36351;SDS011;22382;44.768;17.206;2024-02-16T12:59:27;14.10;;;8.13;;
36351;SDS011;22382;44.768;17.206;2024-02-16T13:01:54;14.00;;;8.23;;
36351;SDS011;22382;44.768;17.206;2024-02-16T13:04:22;13.73;;;8.40;;
36351;SDS011;22382;44.768;17.206;2024-02-16T13:06:49;16.90;;;8.20;;
36351;SDS011;22382;44.768;17.206;2024-02-16T13:09:19;14.52;;;8.40;;
36351;SDS011;22382;44.768;17.206;2024-02-16T13:11:47;13.93;;;8.40;;
36351;SDS011;22382;44.768;17.206;2024-02-16T13:14:21;12.23;;;7.82;;
36351;SDS011;22382;44.768;17.206;2024-02-16T13:16:51;12.13;;;7.38;;
36351;SDS011;22382;44.768;17.206;2024-02-16T13:19:19;12.10;;;7.90;;
36351;SDS011;22382;44.768;17.206;2024-02-16T13:21:46;14.63;;;8.10;;
36351;SDS011;22382;44.768;17.206;2024-02-16T13:24:20;10.80;;;7.00;;
36351;SDS011;22382;44.768;17.206;2024-02-16T13:26:48;14.32;;;8.57;;
36351;SDS011;22382;44.768;17.206;2024-02-16T13:29:15;12.82;;;8.48;;
36351;SDS011;22382;44.768;17.206;2024-02-16T13:31:43;14.55;;;8.07;;
36351;SDS011;22382;44.768;17.206;2024-02-16T13:34:10;16.17;;;8.27;;
36351;SDS011;22382;44.768;17.206;2024-02-16T13:36:38;11.13;;;7.63;;
36351;SDS011;22382;44.768;17.206;2024-02-16T13:39:06;11.55;;;7.65;;
36351;SDS011;22382;44.768;17.206;2024-02-16T13:41:33;12.70;;;7.10;;
36351;SDS011;22382;44.768;17.206;2024-02-16T13:44:01;11.45;;;7.18;;
36351;SDS011;22382;44.768;17.206;2024-02-16T13:46:29;11.40;;;6.70;;
36351;SDS011;22382;44.768;17.206;2024-02-16T13:48:56;11.48;;;6.75;;
36351;SDS011;22382;44.768;17.206;2024-02-16T13:51:24;11.43;;;6.70;;
36351;SDS011;22382;44.768;17.206;2024-02-16T13:53:51;10.68;;;6.40;;
36351;SDS011;22382;44.768;17.206;2024-02-16T13:56:19;12.23;;;6.20;;
36351;SDS011;22382;44.768;17.206;2024-02-16T13:58:46;9.45;;;5.75;;
36351;SDS011;22382;44.768;17.206;2024-02-16T14:01:14;7.53;;;5.05;;
36351;SDS011;22382;44.768;17.206;2024-02-16T14:03:42;8.63;;;5.15;;
36351;SDS011;22382;44.768;17.206;2024-02-16T14:06:10;8.82;;;4.80;;
36351;SDS011;22382;44.768;17.206;2024-02-16T14:08:38;8.60;;;4.57;;
36351;SDS011;22382;44.768;17.206;2024-02-16T14:11:05;8.60;;;4.72;;
36351;SDS011;22382;44.768;17.206;2024-02-16T14:13:33;7.07;;;4.47;;
36351;SDS011;22382;44.768;17.206;2024-02-16T14:16:00;8.45;;;4.28;;
36351;SDS011;22382;44.768;17.206;2024-02-16T14:18:27;9.13;;;4.53;;
36351;SDS011;22382;44.768;17.206;2024-02-16T14:21:01;6.90;;;4.10;;
36351;SDS011;22382;44.768;17.206;2024-02-16T14:23:29;10.90;;;4.28;;